sensor_id;sensor_type;location;lat;lon;timestamp;P1;durP1;ratioP1;P2;durP2;ratioP2
10963;SDS011;5534;48.784;9.190;2023-02-04T00:02:06;1.77;;;1.50;;
10963;SDS011;5534;48.784;9.190;2023-02-04T00:04:32;2.50;;;1.60;;
10963;SDS011;5534;48.784;9.190;2023-02-04T00:06:58;2.37;;;1.57;;
10963;SDS011;5534;48.784;9.190;2023-02-04T00:09:24;1.80;;;1.67;;
10963;SDS011;5534;48.784;9.190;2023-02-04T00:11:49;2.10;;;1.90;;
10963;SDS011;5534;48.784;9.190;2023-02-04T00:14:15;2.00;;;1.80;;
10963;SDS011;5534;48.784;9.190;2023-02-04T00:16:41;1.63;;;1.53;;
10963;SDS011;5534;48.784;9.190;2023-02-04T00:19:06;1.63;;;1.50;;
10963;SDS011;5534;48.784;9.190;2023-02-04T00:21:32;1.80;;;1.63;;
10963;SDS011;5534;48.784;9.190;2023-02-04T00:23:58;1.60;;;1.50;;
10963;SDS011;5534;48.784;9.190;2023-02-04T00:26:23;2.17;;;1.30;;
10963;SDS011;5534;48.784;9.190;2023-02-04T00:28:49;1.30;;;1.20;;
10963;SDS011;5534;48.784;9.190;2023-02-04T00:31:15;1.63;;;1.53;;
10963;SDS011;5534;48.784;9.190;2023-02-04T00:33:41;1.97;;;1.23;;
10963;SDS011;5534;48.784;9.190;2023-02-04T00:36:07;1.47;;;1.20;;
10963;SDS011;5534;48.784;9.190;2023-02-04T00:38:35;1.80;;;1.37;;
10963;SDS011;5534;48.784;9.190;2023-02-04T00:41:01;1.77;;;1.00;;
10963;SDS011;5534;48.784;9.190;2023-02-04T00:43:26;1.60;;;1.10;;
10963;SDS011;5534;48.784;9.190;2023-02-04T00:45:52;1.67;;;1.17;;
10963;SDS011;5534;48.784;9.190;2023-02-04T00:48:18;1.63;;;1.00;;
10963;SDS011;5534;48.784;9.190;2023-02-04T00:50:44;1.57;;;1.30;;
10963;SDS011;5534;48.784;9.190;2023-02-04T00:53:10;3.10;;;1.40;;
10963;SDS011;5534;48.784;9.190;2023-02-04T00:55:36;2.03;;;1.30;;
10963;SDS011;5534;48.784;9.190;2023-02-04T00:58:01;1.30;;;1.20;;
10963;SDS011;5534;48.784;9.190;2023-02-04T01:00:27;1.40;;;1.30;;
10963;SDS011;5534;48.784;9.190;2023-02-04T01:02:53;1.87;;;1.67;;
10963;SDS011;5534;48.784;9.190;2023-02-04T01:05:19;1.77;;;1.50;;
10963;SDS011;5534;48.784;9.190;2023-02-04T01:07:44;3.33;;;1.90;;
10963;SDS011;5534;48.784;9.190;2023-02-04T01:10:10;2.37;;;1.80;;
10963;SDS011;5534;48.784;9.190;2023-02-04T01:12:36;2.20;;;2.00;;
10963;SDS011;5534;48.784;9.190;2023-02-04T01:15:02;2.30;;;2.07;;
10963;SDS011;5534;48.784;9.190;2023-02-04T01:17:28;3.73;;;1.90;;
10963;SDS011;5534;48.784;9.190;2023-02-04T01:19:54;2.50;;;1.90;;
10963;SDS011;5534;48.784;9.190;2023-02-04T01:22:19;2.20;;;2.00;;
10963;SDS011;5534;48.784;9.190;2023-02-04T01:24:45;3.37;;;2.10;;
10963;SDS011;5534;48.784;9.190;2023-02-04T01:27:13;2.80;;;2.20;;
10963;SDS011;5534;48.784;9.190;2023-02-04T01:29:39;2.60;;;2.30;;
10963;SDS011;5534;48.784;9.190;2023-02-04T01:32:05;2.37;;;2.03;;
10963;SDS011;5534;48.784;9.190;2023-02-04T01:34:30;2.33;;;2.13;;
10963;SDS011;5534;48.784;9.190;2023-02-04T01:36:56;2.63;;;2.43;;
10963;SDS011;5534;48.784;9.190;2023-02-04T01:39:22;2.83;;;2.10;;
10963;SDS011;5534;48.784;9.190;2023-02-04T01:41:48;2.57;;;2.13;;
10963;SDS011;5534;48.784;9.190;2023-02-04T01:44:13;3.50;;;2.13;;
10963;SDS011;5534;48.784;9.190;2023-02-04T01:46:39;2.67;;;1.87;;
10963;SDS011;5534;48.784;9.190;2023-02-04T01:49:05;1.60;;;1.27;;
10963;SDS011;5534;48.784;9.190;2023-02-04T01:51:31;1.77;;;1.37;;
10963;SDS011;5534;48.784;9.190;2023-02-04T01:53:57;1.30;;;1.20;;
10963;SDS011;5534;48.784;9.190;2023-02-04T01:56:25;2.27;;;1.07;;
10963;SDS011;5534;48.784;9.190;2023-02-04T01:58:52;2.50;;;1.10;;
10963;SDS011;5534;48.784;9.190;2023-02-04T02:04:30;1.97;;;1.00;;
10963;SDS011;5534;48.784;9.190;2023-02-04T02:06:58;2.00;;;1.10;;
10963;SDS011;5534;48.784;9.190;2023-02-04T02:09:28;2.87;;;1.20;;
10963;SDS011;5534;48.784;9.190;2023-02-04T02:11:55;1.07;;;0.90;;
10963;SDS011;5534;48.784;9.190;2023-02-04T02:14:21;2.43;;;0.80;;
10963;SDS011;5534;48.784;9.190;2023-02-04T02:16:48;2.67;;;1.17;;
10963;SDS011;5534;48.784;9.190;2023-02-04T02:19:19;2.13;;;0.80;;
10963;SDS011;5534;48.784;9.190;2023-02-04T02:21:57;1.87;;;0.80;;
10963;SDS011;5534;48.784;9.190;2023-02-04T02:26:56;1.43;;;0.80;;
10963;SDS011;5534;48.784;9.190;2023-02-04T02:29:25;1.33;;;0.73;;
10963;SDS011;5534;48.784;9.190;2023-02-04T02:31:52;3.70;;;1.27;;
10963;SDS011;5534;48.784;9.190;2023-02-04T02:34:21;1.43;;;1.00;;
10963;SDS011;5534;48.784;9.190;2023-02-04T02:36:47;4.40;;;1.00;;
10963;SDS011;5534;48.784;9.190;2023-02-04T02:39:13;5.60;;;1.30;;
10963;SDS011;5534;48.784;9.190;2023-02-04T02:41:39;6.33;;;1.40;;
10963;SDS011;5534;48.784;9.190;2023-02-04T02:44:05;1.67;;;1.00;;
10963;SDS011;5534;48.784;9.190;2023-02-04T02:46:31;5.10;;;1.10;;
10963;SDS011;5534;48.784;9.190;2023-02-04T02:48:57;4.33;;;1.47;;
10963;SDS011;5534;48.784;9.190;2023-02-04T02:51:23;3.50;;;1.10;;
10963;SDS011;5534;48.784;9.190;2023-02-04T02:53:49;4.43;;;1.10;;
10963;SDS011;5534;48.784;9.190;2023-02-04T02:56:16;1.57;;;0.83;;
10963;SDS011;5534;48.784;9.190;2023-02-04T02:58:43;3.03;;;1.33;;
10963;SDS011;5534;48.784;9.190;2023-02-04T03:01:08;4.13;;;1.43;;
10963;SDS011;5534;48.784;9.190;2023-02-04T03:03:36;3.50;;;1.13;;
10963;SDS011;5534;48.784;9.190;2023-02-04T03:06:06;3.00;;;1.20;;
10963;SDS011;5534;48.784;9.190;2023-02-04T03:08:46;4.20;;;1.00;;
10963;SDS011;5534;48.784;9.190;2023-02-04T03:11:15;3.03;;;0.90;;
10963;SDS011;5534;48.784;9.190;2023-02-04T03:13:41;1.87;;;1.00;;
10963;SDS011;5534;48.784;9.190;2023-02-04T03:16:07;1.90;;;0.90;;
10963;SDS011;5534;48.784;9.190;2023-02-04T03:18:33;4.70;;;1.00;;
10963;SDS011;5534;48.784;9.190;2023-02-04T03:21:00;3.80;;;1.43;;
10963;SDS011;5534;48.784;9.190;2023-02-04T03:23:29;3.27;;;1.27;;
10963;SDS011;5534;48.784;9.190;2023-02-04T03:25:57;4.20;;;1.13;;
10963;SDS011;5534;48.784;9.190;2023-02-04T03:28:23;2.53;;;1.10;;
10963;SDS011;5534;48.784;9.190;2023-02-04T03:30:49;4.60;;;1.23;;
10963;SDS011;5534;48.784;9.190;2023-02-04T03:33:20;3.77;;;1.60;;
10963;SDS011;5534;48.784;9.190;2023-02-04T03:35:52;3.40;;;1.20;;
10963;SDS011;5534;48.784;9.190;2023-02-04T03:38:17;3.13;;;1.00;;
10963;SDS011;5534;48.784;9.190;2023-02-04T03:40:43;2.77;;;1.30;;
10963;SDS011;5534;48.784;9.190;2023-02-04T03:43:09;3.57;;;1.17;;
10963;SDS011;5534;48.784;9.190;2023-02-04T03:45:35;3.80;;;1.30;;
10963;SDS011;5534;48.784;9.190;2023-02-04T03:48:00;3.70;;;1.17;;
10963;SDS011;5534;48.784;9.190;2023-02-04T03:50:26;3.53;;;1.10;;
10963;SDS011;5534;48.784;9.190;2023-02-04T03:52:53;1.00;;;0.90;;
10963;SDS011;5534;48.784;9.190;2023-02-04T03:55:19;3.60;;;1.33;;
10963;SDS011;5534;48.784;9.190;2023-02-04T03:57:45;5.30;;;1.60;;
10963;SDS011;5534;48.784;9.190;2023-02-04T04:00:11;1.70;;;1.13;;
10963;SDS011;5534;48.784;9.190;2023-02-04T04:02:38;4.60;;;1.33;;
10963;SDS011;5534;48.784;9.190;2023-02-04T04:05:04;6.07;;;1.63;;
10963;SDS011;5534;48.784;9.190;2023-02-04T04:07:30;1.70;;;1.10;;
10963;SDS011;5534;48.784;9.190;2023-02-04T04:09:56;3.57;;;1.60;;
10963;SDS011;5534;48.784;9.190;2023-02-04T04:12:22;3.63;;;1.23;;
10963;SDS011;5534;48.784;9.190;2023-02-04T04:14:48;5.60;;;1.27;;
10963;SDS011;5534;48.784;9.190;2023-02-04T04:17:14;2.83;;;1.40;;
10963;SDS011;5534;48.784;9.190;2023-02-04T04:19:39;3.97;;;1.30;;
10963;SDS011;5534;48.784;9.190;2023-02-04T04:22:05;1.63;;;1.20;;
10963;SDS011;5534;48.784;9.190;2023-02-04T04:24:31;3.37;;;1.67;;
10963;SDS011;5534;48.784;9.190;2023-02-04T04:26:57;3.03;;;1.17;;
10963;SDS011;5534;48.784;9.190;2023-02-04T04:29:23;2.87;;;1.20;;
10963;SDS011;5534;48.784;9.190;2023-02-04T04:31:48;2.97;;;1.30;;
10963;SDS011;5534;48.784;9.190;2023-02-04T04:34:14;5.03;;;1.40;;
10963;SDS011;5534;48.784;9.190;2023-02-04T04:36:40;3.50;;;1.70;;
10963;SDS011;5534;48.784;9.190;2023-02-04T04:39:06;2.40;;;1.33;;
10963;SDS011;5534;48.784;9.190;2023-02-04T04:41:31;3.77;;;1.50;;
10963;SDS011;5534;48.784;9.190;2023-02-04T04:43:57;5.43;;;1.17;;
10963;SDS011;5534;48.784;9.190;2023-02-04T04:46:23;4.93;;;1.40;;
10963;SDS011;5534;48.784;9.190;2023-02-04T04:48:48;2.43;;;1.17;;
10963;SDS011;5534;48.784;9.190;2023-02-04T04:51:14;3.37;;;1.20;;
10963;SDS011;5534;48.784;9.190;2023-02-04T04:53:40;2.77;;;1.20;;
10963;SDS011;5534;48.784;9.190;2023-02-04T04:56:05;2.67;;;1.30;;
10963;SDS011;5534;48.784;9.190;2023-02-04T04:58:31;3.63;;;1.13;;
10963;SDS011;5534;48.784;9.190;2023-02-04T05:00:57;4.10;;;1.47;;
10963;SDS011;5534;48.784;9.190;2023-02-04T05:03:23;3.77;;;1.40;;
10963;SDS011;5534;48.784;9.190;2023-02-04T05:05:48;3.00;;;1.40;;
10963;SDS011;5534;48.784;9.190;2023-02-04T05:08:14;3.00;;;1.20;;
10963;SDS011;5534;48.784;9.190;2023-02-04T05:10:41;1.37;;;1.20;;
10963;SDS011;5534;48.784;9.190;2023-02-04T05:13:08;3.33;;;1.30;;
10963;SDS011;5534;48.784;9.190;2023-02-04T05:15:34;2.50;;;1.30;;
10963;SDS011;5534;48.784;9.190;2023-02-04T05:18:00;3.47;;;1.37;;
10963;SDS011;5534;48.784;9.190;2023-02-04T05:20:26;4.23;;;1.37;;
10963;SDS011;5534;48.784;9.190;2023-02-04T05:22:52;5.50;;;1.63;;
10963;SDS011;5534;48.784;9.190;2023-02-04T05:25:20;2.53;;;1.33;;
10963;SDS011;5534;48.784;9.190;2023-02-04T05:27:46;3.07;;;2.10;;
10963;SDS011;5534;48.784;9.190;2023-02-04T05:30:13;5.03;;;1.80;;
10963;SDS011;5534;48.784;9.190;2023-02-04T05:32:39;4.63;;;2.50;;
10963;SDS011;5534;48.784;9.190;2023-02-04T05:35:05;5.73;;;2.10;;
10963;SDS011;5534;48.784;9.190;2023-02-04T05:37:31;3.53;;;1.70;;
10963;SDS011;5534;48.784;9.190;2023-02-04T05:39:57;8.93;;;2.00;;
10963;SDS011;5534;48.784;9.190;2023-02-04T05:42:23;4.53;;;2.00;;
10963;SDS011;5534;48.784;9.190;2023-02-04T05:44:48;3.07;;;2.00;;
10963;SDS011;5534;48.784;9.190;2023-02-04T05:47:14;4.87;;;1.63;;
10963;SDS011;5534;48.784;9.190;2023-02-04T05:49:40;5.73;;;2.17;;
10963;SDS011;5534;48.784;9.190;2023-02-04T05:52:06;3.37;;;2.00;;
10963;SDS011;5534;48.784;9.190;2023-02-04T05:54:32;3.33;;;2.10;;
10963;SDS011;5534;48.784;9.190;2023-02-04T05:56:58;4.70;;;1.87;;
10963;SDS011;5534;48.784;9.190;2023-02-04T05:59:24;6.73;;;2.23;;
10963;SDS011;5534;48.784;9.190;2023-02-04T06:01:49;2.90;;;2.10;;
10963;SDS011;5534;48.784;9.190;2023-02-04T06:04:15;9.67;;;2.20;;
10963;SDS011;5534;48.784;9.190;2023-02-04T06:06:43;4.97;;;2.20;;
10963;SDS011;5534;48.784;9.190;2023-02-04T06:09:09;5.57;;;2.33;;
10963;SDS011;5534;48.784;9.190;2023-02-04T06:11:35;6.43;;;2.57;;
10963;SDS011;5534;48.784;9.190;2023-02-04T06:14:01;5.63;;;2.07;;
10963;SDS011;5534;48.784;9.190;2023-02-04T06:16:26;4.63;;;2.00;;
10963;SDS011;5534;48.784;9.190;2023-02-04T06:18:52;5.97;;;1.97;;
10963;SDS011;5534;48.784;9.190;2023-02-04T06:21:18;4.83;;;2.20;;
10963;SDS011;5534;48.784;9.190;2023-02-04T06:23:44;7.97;;;2.10;;
10963;SDS011;5534;48.784;9.190;2023-02-04T06:26:10;5.50;;;2.47;;
10963;SDS011;5534;48.784;9.190;2023-02-04T06:28:36;5.37;;;2.30;;
10963;SDS011;5534;48.784;9.190;2023-02-04T06:31:01;7.93;;;2.20;;
10963;SDS011;5534;48.784;9.190;2023-02-04T06:33:27;5.40;;;2.33;;
10963;SDS011;5534;48.784;9.190;2023-02-04T06:35:53;9.93;;;2.67;;
10963;SDS011;5534;48.784;9.190;2023-02-04T06:38:19;9.70;;;2.40;;
10963;SDS011;5534;48.784;9.190;2023-02-04T06:40:44;6.23;;;2.50;;
10963;SDS011;5534;48.784;9.190;2023-02-04T06:43:17;5.80;;;2.17;;
10963;SDS011;5534;48.784;9.190;2023-02-04T06:45:43;7.97;;;2.70;;
10963;SDS011;5534;48.784;9.190;2023-02-04T06:48:09;6.83;;;2.60;;
10963;SDS011;5534;48.784;9.190;2023-02-04T06:50:35;5.33;;;2.37;;
10963;SDS011;5534;48.784;9.190;2023-02-04T06:53:01;4.90;;;2.60;;
10963;SDS011;5534;48.784;9.190;2023-02-04T06:55:26;4.93;;;2.43;;
10963;SDS011;5534;48.784;9.190;2023-02-04T06:57:52;6.27;;;2.60;;
10963;SDS011;5534;48.784;9.190;2023-02-04T07:00:18;9.10;;;2.67;;
10963;SDS011;5534;48.784;9.190;2023-02-04T07:02:44;3.90;;;2.60;;
10963;SDS011;5534;48.784;9.190;2023-02-04T07:05:10;5.03;;;2.70;;
10963;SDS011;5534;48.784;9.190;2023-02-04T07:07:36;6.80;;;2.77;;
10963;SDS011;5534;48.784;9.190;2023-02-04T07:10:01;4.70;;;2.37;;
10963;SDS011;5534;48.784;9.190;2023-02-04T07:12:28;6.83;;;2.77;;
10963;SDS011;5534;48.784;9.190;2023-02-04T07:14:53;4.90;;;2.90;;
10963;SDS011;5534;48.784;9.190;2023-02-04T07:17:19;10.73;;;3.53;;
10963;SDS011;5534;48.784;9.190;2023-02-04T07:19:45;8.90;;;3.50;;
10963;SDS011;5534;48.784;9.190;2023-02-04T07:22:11;9.33;;;2.90;;
10963;SDS011;5534;48.784;9.190;2023-02-04T07:24:37;4.13;;;2.70;;
10963;SDS011;5534;48.784;9.190;2023-02-04T07:27:02;9.50;;;3.03;;
10963;SDS011;5534;48.784;9.190;2023-02-04T07:29:28;10.37;;;3.10;;
10963;SDS011;5534;48.784;9.190;2023-02-04T07:31:54;7.60;;;2.73;;
10963;SDS011;5534;48.784;9.190;2023-02-04T07:34:20;9.60;;;2.30;;
10963;SDS011;5534;48.784;9.190;2023-02-04T07:36:45;4.47;;;2.30;;
10963;SDS011;5534;48.784;9.190;2023-02-04T07:39:11;9.43;;;2.90;;
10963;SDS011;5534;48.784;9.190;2023-02-04T07:41:37;7.17;;;2.87;;
10963;SDS011;5534;48.784;9.190;2023-02-04T07:44:03;9.40;;;2.80;;
10963;SDS011;5534;48.784;9.190;2023-02-04T07:46:29;6.90;;;2.77;;
10963;SDS011;5534;48.784;9.190;2023-02-04T07:48:54;4.10;;;2.13;;
10963;SDS011;5534;48.784;9.190;2023-02-04T07:51:20;7.30;;;2.97;;
10963;SDS011;5534;48.784;9.190;2023-02-04T07:53:46;6.60;;;2.80;;
10963;SDS011;5534;48.784;9.190;2023-02-04T07:56:12;8.97;;;3.00;;
10963;SDS011;5534;48.784;9.190;2023-02-04T07:58:37;7.07;;;2.53;;
10963;SDS011;5534;48.784;9.190;2023-02-04T08:01:03;9.93;;;3.17;;
10963;SDS011;5534;48.784;9.190;2023-02-04T08:03:29;11.67;;;2.90;;
10963;SDS011;5534;48.784;9.190;2023-02-04T08:05:55;7.60;;;2.57;;
10963;SDS011;5534;48.784;9.190;2023-02-04T08:08:20;7.73;;;2.50;;
10963;SDS011;5534;48.784;9.190;2023-02-04T08:10:46;7.33;;;2.40;;
10963;SDS011;5534;48.784;9.190;2023-02-04T08:13:12;5.93;;;2.63;;
10963;SDS011;5534;48.784;9.190;2023-02-04T08:15:38;10.73;;;2.67;;
10963;SDS011;5534;48.784;9.190;2023-02-04T08:18:04;7.10;;;2.37;;
10963;SDS011;5534;48.784;9.190;2023-02-04T08:20:30;10.57;;;3.23;;
10963;SDS011;5534;48.784;9.190;2023-02-04T08:22:56;7.17;;;2.93;;
10963;SDS011;5534;48.784;9.190;2023-02-04T08:25:22;9.90;;;2.63;;
10963;SDS011;5534;48.784;9.190;2023-02-04T08:27:48;6.03;;;2.50;;
10963;SDS011;5534;48.784;9.190;2023-02-04T08:30:14;10.33;;;2.67;;
10963;SDS011;5534;48.784;9.190;2023-02-04T08:32:40;8.33;;;2.33;;
10963;SDS011;5534;48.784;9.190;2023-02-04T08:35:06;7.03;;;2.80;;
10963;SDS011;5534;48.784;9.190;2023-02-04T08:37:32;7.20;;;2.30;;
10963;SDS011;5534;48.784;9.190;2023-02-04T08:39:58;8.73;;;2.10;;
10963;SDS011;5534;48.784;9.190;2023-02-04T08:42:24;8.13;;;2.97;;
10963;SDS011;5534;48.784;9.190;2023-02-04T08:44:50;8.20;;;2.63;;
10963;SDS011;5534;48.784;9.190;2023-02-04T08:47:16;8.63;;;2.50;;
10963;SDS011;5534;48.784;9.190;2023-02-04T08:49:41;5.03;;;2.40;;
10963;SDS011;5534;48.784;9.190;2023-02-04T08:52:07;7.30;;;2.33;;
10963;SDS011;5534;48.784;9.190;2023-02-04T08:54:33;5.97;;;2.73;;
10963;SDS011;5534;48.784;9.190;2023-02-04T08:57:00;7.63;;;2.67;;
10963;SDS011;5534;48.784;9.190;2023-02-04T08:59:26;6.20;;;2.47;;
10963;SDS011;5534;48.784;9.190;2023-02-04T09:01:52;7.77;;;2.37;;
10963;SDS011;5534;48.784;9.190;2023-02-04T09:04:19;10.43;;;3.23;;
10963;SDS011;5534;48.784;9.190;2023-02-04T09:06:46;7.77;;;2.90;;
10963;SDS011;5534;48.784;9.190;2023-02-04T09:09:13;10.90;;;3.60;;
10963;SDS011;5534;48.784;9.190;2023-02-04T09:11:39;7.83;;;2.87;;
10963;SDS011;5534;48.784;9.190;2023-02-04T09:14:05;8.97;;;3.97;;
10963;SDS011;5534;48.784;9.190;2023-02-04T09:16:31;10.73;;;3.90;;
10963;SDS011;5534;48.784;9.190;2023-02-04T09:18:57;7.77;;;3.50;;
10963;SDS011;5534;48.784;9.190;2023-02-04T09:21:26;17.13;;;6.13;;
10963;SDS011;5534;48.784;9.190;2023-02-04T09:23:52;13.40;;;5.13;;
10963;SDS011;5534;48.784;9.190;2023-02-04T09:26:18;15.73;;;4.63;;
10963;SDS011;5534;48.784;9.190;2023-02-04T09:28:44;10.03;;;3.77;;
10963;SDS011;5534;48.784;9.190;2023-02-04T09:31:09;10.57;;;4.33;;
10963;SDS011;5534;48.784;9.190;2023-02-04T09:33:36;6.67;;;4.03;;
10963;SDS011;5534;48.784;9.190;2023-02-04T09:36:02;9.13;;;3.50;;
10963;SDS011;5534;48.784;9.190;2023-02-04T09:38:28;7.90;;;3.30;;
10963;SDS011;5534;48.784;9.190;2023-02-04T09:40:56;10.63;;;3.87;;
10963;SDS011;5534;48.784;9.190;2023-02-04T09:43:26;10.80;;;4.60;;
10963;SDS011;5534;48.784;9.190;2023-02-04T09:45:54;9.70;;;3.20;;
10963;SDS011;5534;48.784;9.190;2023-02-04T09:48:21;11.73;;;3.67;;
10963;SDS011;5534;48.784;9.190;2023-02-04T09:50:51;7.97;;;3.43;;
10963;SDS011;5534;48.784;9.190;2023-02-04T09:53:20;7.77;;;2.57;;
10963;SDS011;5534;48.784;9.190;2023-02-04T09:55:49;13.93;;;2.77;;
10963;SDS011;5534;48.784;9.190;2023-02-04T09:58:17;8.47;;;2.13;;
10963;SDS011;5534;48.784;9.190;2023-02-04T10:00:46;6.70;;;2.00;;
10963;SDS011;5534;48.784;9.190;2023-02-04T10:03:16;12.37;;;3.67;;
10963;SDS011;5534;48.784;9.190;2023-02-04T10:05:45;12.23;;;3.40;;
10963;SDS011;5534;48.784;9.190;2023-02-04T10:08:16;12.63;;;3.67;;
10963;SDS011;5534;48.784;9.190;2023-02-04T10:10:48;9.77;;;2.90;;
10963;SDS011;5534;48.784;9.190;2023-02-04T10:13:18;9.37;;;2.53;;
10963;SDS011;5534;48.784;9.190;2023-02-04T10:15:47;8.43;;;2.93;;
10963;SDS011;5534;48.784;9.190;2023-02-04T10:18:17;6.80;;;2.43;;
10963;SDS011;5534;48.784;9.190;2023-02-04T10:20:51;12.70;;;2.77;;
10963;SDS011;5534;48.784;9.190;2023-02-04T10:23:20;9.30;;;3.00;;
10963;SDS011;5534;48.784;9.190;2023-02-04T10:25:46;12.73;;;3.40;;
10963;SDS011;5534;48.784;9.190;2023-02-04T10:28:13;7.23;;;2.10;;
10963;SDS011;5534;48.784;9.190;2023-02-04T10:30:39;11.40;;;3.07;;
10963;SDS011;5534;48.784;9.190;2023-02-04T10:33:11;7.53;;;2.60;;
10963;SDS011;5534;48.784;9.190;2023-02-04T10:35:46;11.13;;;2.67;;
10963;SDS011;5534;48.784;9.190;2023-02-04T10:38:14;9.50;;;2.30;;
10963;SDS011;5534;48.784;9.190;2023-02-04T10:40:41;10.60;;;2.27;;
10963;SDS011;5534;48.784;9.190;2023-02-04T10:43:08;8.50;;;1.90;;
10963;SDS011;5534;48.784;9.190;2023-02-04T10:45:47;8.90;;;2.40;;
10963;SDS011;5534;48.784;9.190;2023-02-04T10:48:20;9.27;;;2.40;;
10963;SDS011;5534;48.784;9.190;2023-02-04T10:50:46;8.33;;;2.07;;
10963;SDS011;5534;48.784;9.190;2023-02-04T10:53:14;8.40;;;1.60;;
10963;SDS011;5534;48.784;9.190;2023-02-04T10:56:00;6.63;;;1.77;;
10963;SDS011;5534;48.784;9.190;2023-02-04T10:58:29;11.67;;;2.13;;
10963;SDS011;5534;48.784;9.190;2023-02-04T11:00:56;5.90;;;1.90;;
10963;SDS011;5534;48.784;9.190;2023-02-04T11:03:23;8.60;;;2.10;;
10963;SDS011;5534;48.784;9.190;2023-02-04T11:05:51;8.50;;;2.30;;
10963;SDS011;5534;48.784;9.190;2023-02-04T11:08:21;9.80;;;2.23;;
10963;SDS011;5534;48.784;9.190;2023-02-04T11:11:03;10.77;;;2.40;;
10963;SDS011;5534;48.784;9.190;2023-02-04T11:13:45;8.67;;;1.77;;
10963;SDS011;5534;48.784;9.190;2023-02-04T11:18:51;8.17;;;2.40;;
10963;SDS011;5534;48.784;9.190;2023-02-04T11:21:24;10.23;;;2.40;;
10963;SDS011;5534;48.784;9.190;2023-02-04T11:26:44;5.73;;;2.20;;
10963;SDS011;5534;48.784;9.190;2023-02-04T11:31:41;6.37;;;1.90;;
10963;SDS011;5534;48.784;9.190;2023-02-04T11:34:09;8.83;;;2.70;;
10963;SDS011;5534;48.784;9.190;2023-02-04T11:42:16;6.07;;;2.33;;
10963;SDS011;5534;48.784;9.190;2023-02-04T11:44:49;9.60;;;2.63;;
10963;SDS011;5534;48.784;9.190;2023-02-04T11:47:21;8.90;;;2.30;;
10963;SDS011;5534;48.784;9.190;2023-02-04T11:49:56;11.73;;;2.40;;
10963;SDS011;5534;48.784;9.190;2023-02-04T11:52:23;9.67;;;3.00;;
10963;SDS011;5534;48.784;9.190;2023-02-04T11:54:53;7.70;;;1.90;;
10963;SDS011;5534;48.784;9.190;2023-02-04T11:57:21;7.47;;;2.30;;
10963;SDS011;5534;48.784;9.190;2023-02-04T11:59:47;11.97;;;2.60;;
10963;SDS011;5534;48.784;9.190;2023-02-04T12:02:17;10.53;;;2.10;;
10963;SDS011;5534;48.784;9.190;2023-02-04T12:04:55;6.17;;;1.70;;
10963;SDS011;5534;48.784;9.190;2023-02-04T12:07:23;7.97;;;2.00;;
10963;SDS011;5534;48.784;9.190;2023-02-04T12:09:51;7.70;;;2.50;;
10963;SDS011;5534;48.784;9.190;2023-02-04T12:12:24;9.63;;;2.43;;
10963;SDS011;5534;48.784;9.190;2023-02-04T12:15:00;7.90;;;2.40;;
10963;SDS011;5534;48.784;9.190;2023-02-04T12:17:33;4.60;;;2.00;;
10963;SDS011;5534;48.784;9.190;2023-02-04T12:19:59;9.77;;;2.60;;
10963;SDS011;5534;48.784;9.190;2023-02-04T12:22:24;5.60;;;1.90;;
10963;SDS011;5534;48.784;9.190;2023-02-04T12:24:50;7.63;;;1.77;;
10963;SDS011;5534;48.784;9.190;2023-02-04T12:27:16;6.30;;;1.97;;
10963;SDS011;5534;48.784;9.190;2023-02-04T12:29:45;12.50;;;2.20;;
10963;SDS011;5534;48.784;9.190;2023-02-04T12:32:11;7.47;;;2.27;;
10963;SDS011;5534;48.784;9.190;2023-02-04T12:34:37;6.50;;;2.20;;
10963;SDS011;5534;48.784;9.190;2023-02-04T12:37:03;6.90;;;1.90;;
10963;SDS011;5534;48.784;9.190;2023-02-04T12:39:29;5.90;;;2.37;;
10963;SDS011;5534;48.784;9.190;2023-02-04T12:41:56;7.87;;;2.07;;
10963;SDS011;5534;48.784;9.190;2023-02-04T12:44:22;5.77;;;1.90;;
10963;SDS011;5534;48.784;9.190;2023-02-04T12:46:48;6.67;;;1.77;;
10963;SDS011;5534;48.784;9.190;2023-02-04T12:49:13;7.80;;;1.93;;
10963;SDS011;5534;48.784;9.190;2023-02-04T12:51:39;10.20;;;2.07;;
10963;SDS011;5534;48.784;9.190;2023-02-04T12:54:05;7.80;;;1.97;;
10963;SDS011;5534;48.784;9.190;2023-02-04T12:56:30;8.03;;;1.90;;
10963;SDS011;5534;48.784;9.190;2023-02-04T12:58:56;10.23;;;2.33;;
10963;SDS011;5534;48.784;9.190;2023-02-04T13:01:22;5.30;;;1.60;;
10963;SDS011;5534;48.784;9.190;2023-02-04T13:03:48;5.67;;;1.67;;
10963;SDS011;5534;48.784;9.190;2023-02-04T13:06:14;8.50;;;2.27;;
10963;SDS011;5534;48.784;9.190;2023-02-04T13:08:40;4.93;;;1.63;;
10963;SDS011;5534;48.784;9.190;2023-02-04T13:11:05;12.07;;;2.17;;
10963;SDS011;5534;48.784;9.190;2023-02-04T13:13:31;6.97;;;2.27;;
10963;SDS011;5534;48.784;9.190;2023-02-04T13:15:57;8.80;;;2.40;;
10963;SDS011;5534;48.784;9.190;2023-02-04T13:18:23;7.23;;;2.07;;
10963;SDS011;5534;48.784;9.190;2023-02-04T13:20:49;5.80;;;1.93;;
10963;SDS011;5534;48.784;9.190;2023-02-04T13:23:15;9.57;;;2.20;;
10963;SDS011;5534;48.784;9.190;2023-02-04T13:25:40;7.77;;;1.80;;
10963;SDS011;5534;48.784;9.190;2023-02-04T13:28:08;5.63;;;1.80;;
10963;SDS011;5534;48.784;9.190;2023-02-04T13:30:34;7.63;;;1.97;;
10963;SDS011;5534;48.784;9.190;2023-02-04T13:33:00;12.30;;;2.60;;
10963;SDS011;5534;48.784;9.190;2023-02-04T13:35:25;7.63;;;2.67;;
10963;SDS011;5534;48.784;9.190;2023-02-04T13:37:51;11.37;;;2.23;;
10963;SDS011;5534;48.784;9.190;2023-02-04T13:40:17;7.00;;;2.17;;
10963;SDS011;5534;48.784;9.190;2023-02-04T13:42:42;5.70;;;1.97;;
10963;SDS011;5534;48.784;9.190;2023-02-04T13:45:08;7.53;;;2.67;;
10963;SDS011;5534;48.784;9.190;2023-02-04T13:47:36;8.37;;;2.20;;
10963;SDS011;5534;48.784;9.190;2023-02-04T13:50:03;11.67;;;2.70;;
10963;SDS011;5534;48.784;9.190;2023-02-04T13:52:29;8.63;;;2.93;;
10963;SDS011;5534;48.784;9.190;2023-02-04T13:54:55;7.37;;;3.00;;
10963;SDS011;5534;48.784;9.190;2023-02-04T13:57:20;9.03;;;2.67;;
10963;SDS011;5534;48.784;9.190;2023-02-04T13:59:47;10.67;;;2.93;;
10963;SDS011;5534;48.784;9.190;2023-02-04T14:02:12;7.70;;;2.27;;
10963;SDS011;5534;48.784;9.190;2023-02-04T14:04:38;6.00;;;2.23;;
10963;SDS011;5534;48.784;9.190;2023-02-04T14:07:04;7.70;;;3.10;;
10963;SDS011;5534;48.784;9.190;2023-02-04T14:09:29;7.70;;;2.57;;
10963;SDS011;5534;48.784;9.190;2023-02-04T14:11:55;7.13;;;2.40;;
10963;SDS011;5534;48.784;9.190;2023-02-04T14:14:21;9.53;;;2.10;;
10963;SDS011;5534;48.784;9.190;2023-02-04T14:16:46;5.57;;;2.30;;
10963;SDS011;5534;48.784;9.190;2023-02-04T14:19:12;5.57;;;2.50;;
10963;SDS011;5534;48.784;9.190;2023-02-04T14:21:39;7.53;;;2.53;;
10963;SDS011;5534;48.784;9.190;2023-02-04T14:24:04;8.70;;;2.17;;
10963;SDS011;5534;48.784;9.190;2023-02-04T14:26:30;6.97;;;1.83;;
10963;SDS011;5534;48.784;9.190;2023-02-04T14:28:56;6.87;;;2.07;;
10963;SDS011;5534;48.784;9.190;2023-02-04T14:31:22;10.23;;;2.40;;
10963;SDS011;5534;48.784;9.190;2023-02-04T14:33:47;6.47;;;2.17;;
10963;SDS011;5534;48.784;9.190;2023-02-04T14:36:14;8.80;;;2.23;;
10963;SDS011;5534;48.784;9.190;2023-02-04T14:38:40;10.10;;;2.37;;
10963;SDS011;5534;48.784;9.190;2023-02-04T14:41:06;7.23;;;1.67;;
10963;SDS011;5534;48.784;9.190;2023-02-04T14:43:31;6.97;;;2.13;;
10963;SDS011;5534;48.784;9.190;2023-02-04T14:46:02;8.20;;;2.20;;
10963;SDS011;5534;48.784;9.190;2023-02-04T14:48:29;8.83;;;2.47;;
10963;SDS011;5534;48.784;9.190;2023-02-04T14:50:54;10.57;;;2.10;;
10963;SDS011;5534;48.784;9.190;2023-02-04T14:53:20;8.50;;;2.47;;
10963;SDS011;5534;48.784;9.190;2023-02-04T14:55:46;6.63;;;2.10;;
10963;SDS011;5534;48.784;9.190;2023-02-04T14:58:13;9.10;;;2.47;;
10963;SDS011;5534;48.784;9.190;2023-02-04T15:00:38;8.13;;;1.87;;
10963;SDS011;5534;48.784;9.190;2023-02-04T15:03:04;7.53;;;2.27;;
10963;SDS011;5534;48.784;9.190;2023-02-04T15:05:30;8.53;;;2.83;;
10963;SDS011;5534;48.784;9.190;2023-02-04T15:07:56;5.30;;;1.73;;
10963;SDS011;5534;48.784;9.190;2023-02-04T15:10:22;6.90;;;1.50;;
10963;SDS011;5534;48.784;9.190;2023-02-04T15:12:49;7.83;;;1.97;;
10963;SDS011;5534;48.784;9.190;2023-02-04T15:15:16;4.63;;;1.80;;
10963;SDS011;5534;48.784;9.190;2023-02-04T15:17:42;7.10;;;1.70;;